Shaftsbury Center, Vermont
Current Conditions -  °F | °C
As of 10:54 AM on Wednesday 22 Oct 2014 (Local Time) from KDDH Reporting Station
Overcast Overcast  
Wind Chill: 52°   Ceiling: 2000
Heat Index: 52°   Visibility: 10mi
Dew Point: 44°   Wind: 10mph
Humidity: 74%   Direction: 360°N
Pressure: 30.08"   Gusts: NA
Location:  42.9815°N, 73.2071°W
Report Text: KDDH 221454Z AUTO 36009KT 10SM OVC020 11/07 A3008 RMK AO2 SLP187 T01110067 51009
Loading
Personal Weather Stations






























Interactive Weather Map
Tropical Storm Tracking
New forecast layout! Learn more

10-Day Weather Forecast

Advertisements
Track Severe Weather on mobile